Terminal Aerodrome Forecast
Issued by NWS

Home | Current Version | Previous Version | Text Only | Print | Product List | Glossary On
Versions: 1 2 3 4 5 6 7 8 9 10 11 12 13 14
000
FTUS44 KLUB 070331 AAB
TAFCDS
TAF AMD
KCDS 070331Z 0704/0724 01014KT 5SM -TSRA SCT030 BKN050CB
      TEMPO 0704/0708 2SM +TSRA SCT015 OVC030CB
     FM070800 VRB06KT 5SM TSRA OVC025CB
     FM071200 02010KT P6SM SCT020 BKN040=

USA.gov is the U.S. government's official web portal to all federal, state and local government web resources and services.